TimePDT,TemperatureF,Dew PointF,Humidity,Sea Level PressureIn,VisibilityMPH,Wind Direction,Wind SpeedMPH,Gust SpeedMPH,PrecipitationIn,Events,Conditions,WindDirDegrees,DateUTC
12:53 AM,39.0,35.1,86,30.40,8.0,West,4.6,-,N/A,,Clear,280,2012-10-26 07:53:00
1:53 AM,39.0,35.1,86,30.36,8.0,West,3.5,-,N/A,,Clear,260,2012-10-26 08:53:00
2:53 AM,37.9,34.0,86,30.36,9.0,Calm,Calm,-,N/A,,Clear,0,2012-10-26 09:53:00
3:53 AM,37.0,33.1,86,30.32,8.0,WNW,4.6,-,N/A,,Clear,290,2012-10-26 10:53:00
4:53 AM,37.9,34.0,86,30.32,8.0,West,5.8,-,N/A,,Mostly Cloudy,280,2012-10-26 11:53:00
5:53 AM,37.9,34.0,86,30.30,9.0,SSW,3.5,-,N/A,,Overcast,210,2012-10-26 12:53:00
6:53 AM,39.9,36.0,86,30.28,9.0,Calm,Calm,-,N/A,,Overcast,0,2012-10-26 13:53:00
7:53 AM,39.2,35.6,87,30.25,8.0,Calm,Calm,-,N/A,,Overcast,0,2012-10-26 14:53:00
8:53 AM,41.0,36.0,82,30.26,7.0,Calm,Calm,-,N/A,,Overcast,0,2012-10-26 15:53:00
9:53 AM,43.0,36.0,76,30.24,9.0,North,3.5,-,N/A,,Overcast,10,2012-10-26 16:53:00
10:53 AM,43.0,36.0,76,30.23,8.0,Calm,Calm,-,N/A,,Overcast,0,2012-10-26 17:53:00
11:53 AM,44.1,37.0,76,30.23,4.0,Calm,Calm,-,0.00,Rain,Light Rain,0,2012-10-26 18:53:00
12:53 PM,44.1,39.0,82,30.20,5.0,Calm,Calm,-,0.01,Rain,Light Rain,0,2012-10-26 19:53:00
1:53 PM,45.0,39.0,80,30.19,10.0,NNE,5.8,-,0.02,,Mostly Cloudy,20,2012-10-26 20:53:00
2:24 PM,44.6,37.4,76,30.17,10.0,North,5.8,-,N/A,,Overcast,360,2012-10-26 21:24:00
2:53 PM,45.0,37.9,76,30.19,10.0,North,9.2,-,0.00,Rain,Light Rain,350,2012-10-26 21:53:00
3:53 PM,43.0,36.0,76,30.19,10.0,North,6.9,-,0.00,,Overcast,360,2012-10-26 22:53:00
4:53 PM,43.0,37.0,80,30.18,10.0,Calm,Calm,-,N/A,,Overcast,0,2012-10-26 23:53:00
5:53 PM,43.0,37.0,80,30.18,10.0,Calm,Calm,-,N/A,,Overcast,0,2012-10-27 00:53:00
6:53 PM,43.0,37.0,80,30.18,10.0,Calm,Calm,-,N/A,,Overcast,0,2012-10-27 01:53:00
7:53 PM,43.0,37.0,80,30.17,10.0,Calm,Calm,-,N/A,,Overcast,0,2012-10-27 02:53:00
8:24 PM,42.8,37.4,81,30.14,10.0,Calm,Calm,-,N/A,,Overcast,0,2012-10-27 03:24:00
8:53 PM,42.1,37.0,82,30.15,10.0,Calm,Calm,-,N/A,,Overcast,0,2012-10-27 03:53:00
9:10 PM,42.8,37.4,81,30.13,10.0,Calm,Calm,-,N/A,,Overcast,0,2012-10-27 04:10:00
9:44 PM,42.8,37.4,81,30.12,10.0,Calm,Calm,-,N/A,,Overcast,0,2012-10-27 04:44:00
9:53 PM,42.1,37.0,82,30.14,10.0,Calm,Calm,-,N/A,,Overcast,0,2012-10-27 04:53:00
10:18 PM,42.8,37.4,81,30.11,10.0,North,-9999.0,-,N/A,,Overcast,0,2012-10-27 05:18:00
10:53 PM,42.1,37.0,82,30.14,10.0,Calm,Calm,-,N/A,,Overcast,0,2012-10-27 05:53:00
11:53 PM,42.1,37.0,82,30.12,10.0,Calm,Calm,-,N/A,,Overcast,0,2012-10-27 06:53:00